Time;durP1;ratioP1;P1;durP2;ratioP2;P2;SDS_P1;SDS_P2;PMS_P1;PMS_P2;Temp;Humidity;BMP_temperature;BMP_pressure;BME280_temperature;BME280_humidity;BME280_pressure;Samples;Min_cycle;Max_cycle;Signal;HPM_P1;HPM_P2
2022/03/08 00:00:55;;;;;;;2.40;2.30;;;3.30;98.00;;;;;;5066728;22;20730;-65
2022/03/08 00:03:22;;;;;;;2.20;2.10;;;3.30;98.10;;;;;;5027724;28;20272;-64
2022/03/08 00:05:49;;;;;;;2.15;2.05;;;3.30;98.10;;;;;;5029283;28;20239;-65
2022/03/08 00:08:15;;;;;;;2.70;2.50;;;3.20;98.30;;;;;;5031953;28;20742;-64
2022/03/08 00:10:43;;;;;;;2.40;2.30;;;3.20;98.20;;;;;;5031953;28;20220;-64
2022/03/08 00:13:10;;;;;;;2.37;2.27;;;3.20;98.00;;;;;;5032173;28;20201;-65
2022/03/08 00:15:37;;;;;;;2.28;2.17;;;3.10;98.00;;;;;;5030157;28;20252;-66
2022/03/08 00:18:06;;;;;;;2.25;2.15;;;3.10;98.40;;;;;;5035489;28;20686;-65
2022/03/08 00:20:33;;;;;;;2.10;2.00;;;3.10;98.10;;;;;;5035227;28;20745;-66
2022/03/08 00:23:00;;;;;;;2.22;2.13;;;3.10;98.40;;;;;;5038163;28;20544;-65
2022/03/08 00:25:28;;;;;;;2.20;2.10;;;3.10;97.90;;;;;;5031493;28;20196;-66
2022/03/08 00:27:56;;;;;;;2.38;2.28;;;3.20;98.30;;;;;;5033214;28;20268;-65
2022/03/08 00:30:27;;;;;;;2.40;2.30;;;3.20;97.90;;;;;;5033342;28;20228;-66
2022/03/08 00:32:55;;;;;;;2.28;2.17;;;3.20;97.80;;;;;;5033204;28;20207;-66
2022/03/08 00:35:25;;;;;;;2.03;1.92;;;3.20;97.80;;;;;;5032693;28;20216;-65
2022/03/08 00:37:53;;;;;;;2.20;2.10;;;3.20;98.10;;;;;;5032922;28;20292;-66
2022/03/08 00:40:23;;;;;;;1.98;1.88;;;3.20;98.40;;;;;;5031493;28;20220;-63
2022/03/08 00:42:50;;;;;;;2.10;2.00;;;3.20;98.50;;;;;;5038011;28;20200;-64
2022/03/08 00:45:17;;;;;;;2.20;2.10;;;3.20;98.40;;;;;;5036735;28;20666;-66
2022/03/08 00:47:45;;;;;;;2.33;2.22;;;3.20;98.00;;;;;;5048662;28;20199;-65
2022/03/08 00:50:16;;;;;;;2.08;1.98;;;3.20;97.90;;;;;;5040086;28;20252;-66
2022/03/08 00:52:45;;;;;;;2.00;1.90;;;3.10;98.70;;;;;;5030988;28;20292;-66
2022/03/08 00:55:13;;;;;;;1.90;1.80;;;3.10;98.10;;;;;;5032556;28;20259;-66
2022/03/08 00:57:40;;;;;;;2.03;1.92;;;3.10;98.60;;;;;;5036539;28;20251;-64
2022/03/08 01:00:09;;;;;;;2.00;1.90;;;3.10;98.40;;;;;;5032854;28;20328;-64
2022/03/08 01:02:36;;;;;;;2.30;2.20;;;3.00;98.60;;;;;;5032895;28;20232;-64
2022/03/08 01:05:04;;;;;;;2.22;2.00;;;2.90;98.60;;;;;;5032169;28;20296;-64
2022/03/08 01:07:31;;;;;;;2.10;2.00;;;2.90;98.90;;;;;;5041583;28;20234;-64
2022/03/08 01:09:59;;;;;;;2.20;2.10;;;2.80;98.80;;;;;;5047013;28;20219;-69
2022/03/08 01:12:27;;;;;;;1.90;1.80;;;2.80;99.20;;;;;;5053887;28;20212;-66
2022/03/08 01:14:54;;;;;;;1.90;1.80;;;2.80;99.10;;;;;;5052289;28;20228;-66
2022/03/08 01:17:21;;;;;;;2.17;2.08;;;2.70;99.20;;;;;;5050346;28;20235;-65
2022/03/08 01:19:48;;;;;;;1.95;1.85;;;2.70;99.30;;;;;;5033400;28;20300;-65
2022/03/08 01:22:15;;;;;;;2.08;1.98;;;2.80;99.60;;;;;;5032145;28;20303;-64
2022/03/08 01:24:42;;;;;;;2.20;2.10;;;2.80;99.70;;;;;;5032194;28;20235;-66
2022/03/08 01:27:10;;;;;;;2.28;2.17;;;2.70;99.30;;;;;;5037487;28;20204;-65
2022/03/08 01:29:37;;;;;;;2.13;2.03;;;2.60;99.70;;;;;;5034913;28;20252;-64
2022/03/08 01:32:05;;;;;;;2.15;2.05;;;2.60;99.90;;;;;;5032557;28;20287;-66
2022/03/08 01:34:34;;;;;;;1.88;1.77;;;2.60;99.90;;;;;;5032724;28;20309;-66
2022/03/08 01:37:00;;;;;;;2.28;2.17;;;2.50;99.90;;;;;;5032448;28;20200;-62
2022/03/08 01:39:27;;;;;;;2.00;1.90;;;2.50;99.90;;;;;;5032276;28;20251;-66
2022/03/08 01:41:54;;;;;;;2.10;2.00;;;2.50;99.90;;;;;;5032342;28;20292;-65
2022/03/08 01:44:23;;;;;;;2.00;1.90;;;2.40;99.90;;;;;;5031484;28;20219;-65
2022/03/08 01:46:50;;;;;;;2.33;2.10;;;2.50;99.90;;;;;;5032517;28;20247;-66
2022/03/08 01:49:17;;;;;;;2.00;1.90;;;2.50;99.90;;;;;;5032876;28;20288;-63
2022/03/08 01:51:44;;;;;;;2.17;2.08;;;2.60;99.90;;;;;;5033306;28;20276;-64
2022/03/08 01:54:12;;;;;;;2.20;2.10;;;2.70;99.90;;;;;;5032518;28;20301;-64
2022/03/08 01:56:39;;;;;;;2.08;1.98;;;2.70;99.90;;;;;;5032499;28;20201;-64
2022/03/08 01:59:06;;;;;;;2.10;2.00;;;2.80;99.90;;;;;;5032197;28;20240;-65
2022/03/08 02:01:34;;;;;;;1.83;1.73;;;2.80;99.90;;;;;;5032507;28;20199;-65
2022/03/08 02:04:01;;;;;;;2.40;2.30;;;2.60;99.90;;;;;;5032412;28;20295;-66
2022/03/08 02:06:29;;;;;;;2.00;1.90;;;2.50;99.90;;;;;;5032187;28;20641;-65
2022/03/08 02:08:56;;;;;;;2.13;2.03;;;2.50;99.90;;;;;;5032116;28;20208;-65
2022/03/08 02:11:23;;;;;;;2.05;1.95;;;2.50;99.90;;;;;;5032253;28;20285;-66
2022/03/08 02:13:50;;;;;;;2.15;2.05;;;2.30;99.90;;;;;;5032324;28;20200;-65
2022/03/08 02:16:17;;;;;;;2.10;2.00;;;2.20;99.90;;;;;;5032433;28;20311;-65
2022/03/08 02:18:45;;;;;;;2.17;2.08;;;2.20;99.90;;;;;;5030678;28;20344;-65
2022/03/08 02:21:14;;;;;;;1.92;1.83;;;2.00;99.90;;;;;;5032196;28;20256;-64
2022/03/08 02:23:41;;;;;;;2.20;2.10;;;2.00;99.90;;;;;;5032021;28;20240;-65
2022/03/08 02:26:07;;;;;;;2.13;2.03;;;2.00;99.90;;;;;;5032591;28;20236;-67
2022/03/08 02:28:34;;;;;;;2.30;2.20;;;2.00;99.90;;;;;;5033419;28;20292;-66
2022/03/08 02:31:01;;;;;;;2.05;1.95;;;2.00;99.90;;;;;;5033568;28;20730;-65
2022/03/08 02:33:28;;;;;;;2.10;2.00;;;2.00;99.90;;;;;;5034646;28;20287;-64
2022/03/08 02:35:55;;;;;;;1.95;1.85;;;2.00;99.90;;;;;;5034608;28;20263;-64
2022/03/08 02:38:24;;;;;;;2.10;2.00;;;2.20;99.90;;;;;;5034469;28;20227;-66
2022/03/08 02:40:51;;;;;;;2.08;1.98;;;2.20;99.90;;;;;;5033946;28;20255;-66
2022/03/08 02:43:19;;;;;;;2.25;2.15;;;2.10;99.90;;;;;;5034426;28;20294;-65
2022/03/08 02:45:46;;;;;;;2.00;1.90;;;2.00;99.90;;;;;;5042792;28;20241;-66
2022/03/08 02:48:13;;;;;;;2.00;1.90;;;1.90;99.90;;;;;;5043440;28;20212;-65
2022/03/08 02:50:40;;;;;;;2.15;2.05;;;1.90;99.90;;;;;;5033731;28;20251;-64
2022/03/08 02:53:07;;;;;;;2.30;2.20;;;1.90;99.90;;;;;;5033307;28;20209;-65
2022/03/08 02:55:37;;;;;;;2.20;2.10;;;1.80;99.90;;;;;;5032816;28;20315;-64
2022/03/08 02:58:05;;;;;;;2.50;2.40;;;1.80;99.90;;;;;;5033017;28;20208;-64
2022/03/08 03:00:34;;;;;;;2.53;2.28;;;1.70;99.90;;;;;;5033131;28;20243;-66
2022/03/08 03:03:01;;;;;;;2.60;2.50;;;1.60;99.90;;;;;;5033428;28;20288;-65
2022/03/08 03:05:28;;;;;;;2.67;2.47;;;1.50;99.90;;;;;;5034462;28;20293;-64
2022/03/08 03:07:55;;;;;;;2.55;2.45;;;1.40;99.90;;;;;;5034011;28;20291;-66
2022/03/08 03:10:24;;;;;;;2.90;2.70;;;1.30;99.90;;;;;;5034241;28;20307;-65
2022/03/08 03:12:54;;;;;;;2.63;2.42;;;1.30;99.90;;;;;;5034245;28;20690;-63
2022/03/08 03:15:21;;;;;;;2.40;2.30;;;1.20;99.90;;;;;;5033553;28;20319;-65
2022/03/08 03:17:49;;;;;;;2.35;2.25;;;1.20;99.90;;;;;;5036222;28;20231;-65
2022/03/08 03:20:17;;;;;;;2.67;2.58;;;1.30;99.90;;;;;;5042998;28;20649;-65
2022/03/08 03:22:45;;;;;;;2.58;2.47;;;1.20;99.90;;;;;;5033371;28;20264;-65
2022/03/08 03:25:13;;;;;;;3.65;3.00;;;1.20;99.90;;;;;;5034195;28;20264;-65
2022/03/08 03:27:40;;;;;;;3.30;3.10;;;1.10;99.90;;;;;;5035697;28;20239;-65
2022/03/08 03:30:12;;;;;;;2.95;2.85;;;1.00;99.90;;;;;;5038429;28;20259;-66
2022/03/08 03:32:40;;;;;;;2.75;2.55;;;0.90;99.90;;;;;;5037328;28;20255;-65
2022/03/08 03:35:09;;;;;;;2.70;2.60;;;0.80;99.90;;;;;;5038448;28;20327;-66
2022/03/08 03:37:35;;;;;;;2.58;2.47;;;0.80;99.90;;;;;;5040505;28;20668;-65
2022/03/08 03:40:04;;;;;;;3.20;3.00;;;0.70;99.90;;;;;;5037125;28;20260;-63
2022/03/08 03:42:31;;;;;;;2.42;2.33;;;0.60;99.90;;;;;;5038285;28;20577;-65
2022/03/08 03:44:58;;;;;;;2.92;2.75;;;0.60;99.90;;;;;;5035521;28;20299;-65
2022/03/08 03:47:26;;;;;;;3.15;2.95;;;0.60;99.90;;;;;;5036405;28;20236;-64
2022/03/08 03:49:53;;;;;;;2.88;2.70;;;0.70;99.90;;;;;;5036410;28;20548;-66
2022/03/08 03:52:20;;;;;;;2.80;2.70;;;0.80;99.90;;;;;;5036411;28;20340;-64
2022/03/08 03:54:47;;;;;;;2.58;2.42;;;0.80;99.90;;;;;;5036831;28;20236;-65
2022/03/08 03:57:14;;;;;;;2.63;2.53;;;0.80;99.90;;;;;;5037484;28;20255;-66
2022/03/08 03:59:41;;;;;;;2.53;2.42;;;0.80;99.90;;;;;;5036520;28;20287;-66
2022/03/08 04:02:08;;;;;;;2.65;2.55;;;1.00;99.90;;;;;;5036201;28;20300;-65
2022/03/08 04:04:37;;;;;;;2.53;2.42;;;1.00;99.90;;;;;;5037107;28;20211;-65
2022/03/08 04:07:04;;;;;;;2.53;2.42;;;1.00;99.90;;;;;;5037562;28;20208;-66
2022/03/08 04:09:31;;;;;;;2.67;2.47;;;1.00;99.90;;;;;;5036475;28;20228;-64
2022/03/08 04:11:58;;;;;;;2.70;2.60;;;1.00;99.90;;;;;;5036283;28;20407;-65
2022/03/08 04:14:26;;;;;;;2.83;2.63;;;1.10;99.90;;;;;;5036052;28;20259;-65
2022/03/08 04:16:53;;;;;;;2.72;2.63;;;1.10;99.90;;;;;;5037456;28;20259;-66
2022/03/08 04:19:20;;;;;;;3.00;2.80;;;1.00;99.90;;;;;;5037519;28;20204;-64
2022/03/08 04:21:48;;;;;;;2.90;2.80;;;0.90;99.90;;;;;;5037675;28;20277;-65
2022/03/08 04:24:15;;;;;;;3.20;3.00;;;0.70;99.90;;;;;;5038144;28;20267;-64
2022/03/08 04:26:42;;;;;;;2.70;2.60;;;0.60;99.90;;;;;;5036989;28;20644;-64
2022/03/08 04:29:09;;;;;;;2.50;2.40;;;0.80;99.90;;;;;;5037517;28;20584;-65
2022/03/08 04:31:36;;;;;;;2.83;2.65;;;0.70;99.90;;;;;;5037663;28;20295;-65
2022/03/08 04:34:03;;;;;;;2.90;2.80;;;0.60;99.90;;;;;;5036628;28;20346;-63
2022/03/08 04:36:30;;;;;;;3.10;2.90;;;0.50;99.90;;;;;;5035604;28;20260;-65
2022/03/08 04:38:58;;;;;;;2.92;2.72;;;0.50;99.90;;;;;;5033833;28;20259;-65
2022/03/08 04:41:25;;;;;;;3.15;2.95;;;0.60;99.90;;;;;;5040136;28;20288;-65
2022/03/08 04:43:52;;;;;;;3.22;3.03;;;0.70;99.90;;;;;;5052392;28;20236;-64
2022/03/08 04:46:19;;;;;;;2.75;2.65;;;0.50;99.90;;;;;;5037715;28;20642;-65
2022/03/08 04:48:46;;;;;;;2.90;2.70;;;0.40;99.90;;;;;;5035217;28;20231;-65
2022/03/08 04:51:13;;;;;;;2.83;2.72;;;0.50;99.90;;;;;;5035073;28;20234;-65
2022/03/08 04:53:40;;;;;;;2.47;2.38;;;0.50;99.90;;;;;;5034104;28;20236;-64
2022/03/08 04:56:08;;;;;;;2.72;2.63;;;0.50;99.90;;;;;;5034907;28;20224;-64
2022/03/08 04:58:35;;;;;;;3.03;2.83;;;0.50;99.90;;;;;;5036945;28;20748;-64
2022/03/08 05:01:02;;;;;;;3.15;3.00;;;0.50;99.90;;;;;;5041743;28;20228;-64
2022/03/08 05:03:29;;;;;;;2.80;2.70;;;0.40;99.90;;;;;;5034760;28;20205;-64
2022/03/08 05:05:56;;;;;;;2.80;2.70;;;0.40;99.90;;;;;;5034551;28;20232;-65
2022/03/08 05:08:22;;;;;;;2.63;2.53;;;0.40;99.90;;;;;;5035017;28;20244;-64
2022/03/08 05:10:49;;;;;;;2.95;2.75;;;0.50;99.90;;;;;;5034060;28;20225;-64
2022/03/08 05:13:18;;;;;;;2.88;2.67;;;0.50;99.90;;;;;;5034487;28;20254;-63
2022/03/08 05:15:48;;;;;;;2.72;2.63;;;0.60;99.90;;;;;;5034539;28;20288;-63
2022/03/08 05:18:15;;;;;;;2.60;2.50;;;0.50;99.90;;;;;;5034701;28;20212;-64
2022/03/08 05:20:42;;;;;;;2.85;2.70;;;0.50;99.90;;;;;;5033771;28;20802;-64
2022/03/08 05:23:09;;;;;;;2.70;2.60;;;0.40;99.90;;;;;;5033500;28;20204;-63
2022/03/08 05:25:36;;;;;;;2.40;2.30;;;0.40;99.90;;;;;;5033306;28;20633;-64
2022/03/08 05:28:03;;;;;;;2.42;2.33;;;0.30;99.90;;;;;;5033388;28;20647;-64
2022/03/08 05:30:32;;;;;;;2.33;2.22;;;0.40;99.90;;;;;;5033800;28;20597;-64
2022/03/08 05:32:58;;;;;;;2.80;2.70;;;0.40;99.90;;;;;;5033626;28;20296;-64
2022/03/08 05:35:25;;;;;;;2.63;2.53;;;0.30;99.90;;;;;;5033136;28;20263;-66
2022/03/08 05:37:52;;;;;;;2.95;2.60;;;0.30;99.90;;;;;;5033281;28;20240;-66
2022/03/08 05:40:19;;;;;;;2.65;2.55;;;0.30;99.90;;;;;;5033330;28;20737;-66
2022/03/08 05:42:46;;;;;;;2.70;2.60;;;0.30;99.90;;;;;;5032925;28;20700;-64
2022/03/08 05:45:13;;;;;;;2.83;2.72;;;0.50;99.90;;;;;;5034416;28;20217;-64
2022/03/08 05:47:42;;;;;;;2.80;2.70;;;0.50;99.90;;;;;;5035966;28;20312;-67
2022/03/08 05:50:10;;;;;;;3.00;2.80;;;0.60;99.90;;;;;;5034387;28;20315;-66
2022/03/08 05:52:37;;;;;;;2.67;2.58;;;0.60;99.90;;;;;;5036587;28;20291;-65
2022/03/08 05:55:05;;;;;;;2.42;2.33;;;0.50;99.90;;;;;;5034073;28;20224;-66
2022/03/08 05:57:32;;;;;;;3.10;2.90;;;0.50;99.90;;;;;;5033986;28;20307;-65
2022/03/08 05:59:59;;;;;;;2.60;2.50;;;0.40;99.90;;;;;;5061524;23;20319;-62
2022/03/08 06:02:25;;;;;;;2.95;2.83;;;0.30;99.90;;;;;;5105039;28;20201;-62
2022/03/08 06:04:54;;;;;;;2.58;2.47;;;0.20;99.90;;;;;;5109510;28;20262;-62
2022/03/08 06:07:21;;;;;;;2.53;2.42;;;0.20;99.90;;;;;;5102611;28;20613;-62
2022/03/08 06:09:48;;;;;;;2.53;2.35;;;0.20;99.90;;;;;;5101222;28;20267;-62
2022/03/08 06:12:15;;;;;;;2.90;2.70;;;0.30;99.90;;;;;;5093514;28;20209;-62
2022/03/08 06:14:42;;;;;;;2.80;2.70;;;0.30;99.90;;;;;;5097446;28;20789;-63
2022/03/08 06:17:09;;;;;;;2.90;2.80;;;0.40;99.90;;;;;;5087375;28;20208;-62
2022/03/08 06:19:36;;;;;;;3.30;3.10;;;0.40;99.90;;;;;;5099368;28;20282;-63
2022/03/08 06:22:05;;;;;;;2.85;2.65;;;0.40;99.90;;;;;;5082029;28;20326;-61
2022/03/08 06:24:32;;;;;;;2.30;2.20;;;0.70;99.90;;;;;;5092814;28;20202;-62
2022/03/08 06:26:59;;;;;;;2.20;2.10;;;0.60;99.90;;;;;;5085253;28;20700;-63
2022/03/08 06:29:27;;;;;;;2.28;2.17;;;0.70;99.90;;;;;;5081236;28;20250;-63
2022/03/08 06:31:53;;;;;;;1.70;1.60;;;0.80;99.90;;;;;;5088637;28;20258;-62
2022/03/08 06:34:20;;;;;;;1.52;1.42;;;1.00;99.90;;;;;;5098761;28;20656;-62
2022/03/08 06:36:47;;;;;;;1.65;1.55;;;1.20;99.90;;;;;;5087787;28;20211;-62
2022/03/08 06:39:15;;;;;;;2.05;1.55;;;1.40;99.90;;;;;;5091995;28;20209;-62
2022/03/08 06:41:42;;;;;;;1.70;1.60;;;1.60;99.90;;;;;;5083125;28;20364;-62
2022/03/08 06:44:10;;;;;;;1.02;1.02;;;1.70;99.90;;;;;;5089196;28;20209;-61
2022/03/08 06:46:41;;;;;;;1.20;1.20;;;1.80;99.90;;;;;;5092029;28;20630;-63
2022/03/08 06:49:08;;;;;;;1.92;1.83;;;2.00;99.90;;;;;;5094998;28;20187;-62
2022/03/08 06:51:35;;;;;;;2.28;2.17;;;2.10;99.90;;;;;;5082390;28;20306;-63
2022/03/08 06:54:02;;;;;;;3.28;3.05;;;1.80;99.90;;;;;;5074857;28;20203;-62
2022/03/08 06:56:30;;;;;;;3.30;3.10;;;1.50;99.90;;;;;;5084641;28;20273;-61
2022/03/08 06:58:57;;;;;;;3.28;3.08;;;1.20;99.90;;;;;;5098316;28;20653;-62
2022/03/08 07:01:24;;;;;;;3.50;3.30;;;0.80;99.90;;;;;;5091402;28;20237;-61
2022/03/08 07:03:51;;;;;;;3.25;3.05;;;0.60;99.90;;;;;;5097920;28;20225;-63
2022/03/08 07:06:18;;;;;;;3.50;3.30;;;0.60;99.90;;;;;;5093570;28;20428;-61
2022/03/08 07:08:45;;;;;;;3.45;3.25;;;0.60;99.90;;;;;;5106331;28;20210;-63
2022/03/08 07:11:12;;;;;;;2.97;2.78;;;0.50;99.90;;;;;;5099698;28;20257;-62
2022/03/08 07:13:40;;;;;;;3.28;3.08;;;0.60;99.90;;;;;;5090013;28;20199;-61
2022/03/08 07:16:07;;;;;;;3.38;3.17;;;0.70;99.90;;;;;;5085420;28;20265;-62
2022/03/08 07:18:34;;;;;;;3.00;2.80;;;0.80;99.90;;;;;;5098204;28;20203;-62
2022/03/08 07:21:02;;;;;;;3.60;3.40;;;1.00;99.90;;;;;;5083241;28;20756;-62
2022/03/08 07:23:29;;;;;;;3.53;3.33;;;0.80;99.90;;;;;;5081979;28;20199;-62
2022/03/08 07:25:56;;;;;;;3.40;3.20;;;0.80;99.90;;;;;;5085935;28;20209;-62
2022/03/08 07:28:23;;;;;;;3.28;3.08;;;0.80;99.90;;;;;;5089985;28;20286;-62
2022/03/08 07:30:51;;;;;;;3.50;3.30;;;0.90;99.90;;;;;;5088878;28;20222;-63
2022/03/08 07:33:18;;;;;;;3.58;3.38;;;1.10;99.90;;;;;;5075023;28;20199;-62
2022/03/08 07:35:45;;;;;;;3.20;3.08;;;1.10;99.90;;;;;;5091485;28;20278;-62
2022/03/08 07:38:12;;;;;;;3.50;3.30;;;1.10;99.90;;;;;;5102739;28;20214;-62
2022/03/08 07:40:39;;;;;;;3.83;3.63;;;1.30;99.90;;;;;;5102715;28;20230;-62
2022/03/08 07:43:06;;;;;;;3.50;3.30;;;1.40;99.90;;;;;;5106148;28;20222;-63
2022/03/08 07:45:35;;;;;;;3.65;3.45;;;1.50;99.90;;;;;;5091260;28;20213;-62
2022/03/08 07:48:04;;;;;;;3.30;3.10;;;1.50;99.90;;;;;;5079888;28;20207;-63
2022/03/08 07:50:32;;;;;;;3.03;2.83;;;1.60;99.90;;;;;;5074121;28;20788;-61
2022/03/08 07:53:00;;;;;;;3.40;3.20;;;1.70;99.90;;;;;;5074405;28;20345;-62
2022/03/08 07:55:29;;;;;;;3.45;3.28;;;1.80;99.90;;;;;;5077450;28;20232;-62
2022/03/08 07:57:56;;;;;;;3.25;3.05;;;2.00;99.90;;;;;;5085270;28;20318;-62
2022/03/08 08:00:23;;;;;;;3.10;2.90;;;2.10;99.90;;;;;;5103015;28;20314;-63
2022/03/08 08:02:50;;;;;;;3.67;3.47;;;2.30;99.90;;;;;;5103238;28;20203;-63
2022/03/08 08:05:19;;;;;;;3.63;3.35;;;2.40;99.90;;;;;;5093722;28;20700;-62
2022/03/08 08:07:46;;;;;;;3.90;3.70;;;2.40;99.90;;;;;;5093905;28;20231;-62
2022/03/08 08:10:13;;;;;;;3.67;3.47;;;2.40;99.90;;;;;;5094367;28;20309;-61
2022/03/08 08:12:40;;;;;;;3.80;3.60;;;2.50;99.90;;;;;;5094172;28;20695;-62
2022/03/08 08:15:08;;;;;;;3.38;3.17;;;2.80;99.90;;;;;;5094496;28;20597;-63
2022/03/08 08:17:35;;;;;;;3.65;3.45;;;3.00;99.90;;;;;;5094430;28;20222;-62
2022/03/08 08:20:02;;;;;;;3.30;3.10;;;3.20;99.90;;;;;;5094307;28;20234;-62
2022/03/08 08:22:30;;;;;;;2.63;2.53;;;3.40;99.90;;;;;;5094050;28;20207;-61
2022/03/08 08:24:57;;;;;;;1.80;1.70;;;3.50;99.90;;;;;;5094159;28;20267;-62
2022/03/08 08:27:24;;;;;;;2.60;2.50;;;3.80;99.90;;;;;;5094513;28;20202;-63
2022/03/08 08:29:51;;;;;;;1.83;1.73;;;4.30;99.90;;;;;;5093762;28;20234;-62
2022/03/08 08:32:19;;;;;;;1.50;1.40;;;4.50;99.90;;;;;;5094596;28;20285;-63
2022/03/08 08:34:46;;;;;;;1.73;1.63;;;4.80;99.90;;;;;;5094493;28;20720;-63
2022/03/08 08:37:12;;;;;;;1.33;1.33;;;5.10;99.90;;;;;;5093941;28;20218;-62
2022/03/08 08:39:41;;;;;;;1.67;1.58;;;5.40;99.90;;;;;;5093329;28;20298;-62
2022/03/08 08:42:09;;;;;;;1.95;1.80;;;5.60;99.90;;;;;;5100872;28;20227;-62
2022/03/08 08:44:36;;;;;;;1.60;1.50;;;5.70;99.90;;;;;;5110484;28;20639;-62
2022/03/08 08:47:03;;;;;;;1.33;1.30;;;5.90;99.90;;;;;;5097779;28;20309;-63
2022/03/08 08:49:30;;;;;;;1.30;1.30;;;6.00;99.90;;;;;;5093368;28;20305;-62
2022/03/08 08:51:56;;;;;;;1.40;1.30;;;6.10;99.90;;;;;;5093123;28;20218;-63
2022/03/08 08:54:24;;;;;;;1.50;1.40;;;6.30;99.90;;;;;;5092716;28;20297;-61
2022/03/08 08:56:52;;;;;;;1.50;1.40;;;6.30;99.00;;;;;;5093131;28;20393;-62
2022/03/08 08:59:19;;;;;;;2.08;1.42;;;6.40;99.20;;;;;;5093423;28;20294;-63
2022/03/08 09:01:45;;;;;;;1.42;1.40;;;6.60;98.70;;;;;;5092598;28;20237;-64
2022/03/08 09:04:12;;;;;;;5.83;2.57;;;6.70;99.00;;;;;;5092664;28;20289;-63
2022/03/08 09:06:40;;;;;;;1.55;1.45;;;6.80;99.10;;;;;;5093184;28;20582;-63
2022/03/08 09:09:07;;;;;;;1.45;1.42;;;7.00;98.70;;;;;;5092752;28;20209;-63
2022/03/08 09:11:34;;;;;;;1.30;1.30;;;7.10;98.50;;;;;;5092583;28;20254;-64
2022/03/08 09:14:04;;;;;;;1.88;1.30;;;7.20;98.70;;;;;;5092800;28;20203;-64
2022/03/08 09:16:31;;;;;;;1.73;1.63;;;7.40;97.90;;;;;;5092751;28;20187;-62
2022/03/08 09:18:58;;;;;;;1.33;1.33;;;7.50;97.80;;;;;;5093157;28;20289;-62
2022/03/08 09:21:25;;;;;;;1.70;1.60;;;7.60;97.60;;;;;;5092806;28;20322;-61
2022/03/08 09:23:52;;;;;;;1.30;1.30;;;7.70;97.30;;;;;;5095707;28;20633;-62
2022/03/08 09:26:19;;;;;;;1.30;1.30;;;7.90;98.00;;;;;;5096966;28;20290;-63
2022/03/08 09:28:45;;;;;;;1.25;1.25;;;8.10;97.00;;;;;;5096498;28;20270;-62
2022/03/08 09:31:14;;;;;;;1.60;1.50;;;8.20;96.70;;;;;;5095613;28;20294;-61
2022/03/08 09:33:41;;;;;;;1.40;1.40;;;8.40;96.40;;;;;;5094993;28;20289;-63
2022/03/08 09:36:08;;;;;;;1.40;1.40;;;8.50;96.40;;;;;;5094998;28;20270;-62
2022/03/08 09:38:37;;;;;;;1.60;1.50;;;8.60;96.00;;;;;;5095918;28;20261;-63
2022/03/08 09:41:03;;;;;;;1.10;1.10;;;8.70;95.80;;;;;;5096003;28;20226;-63
2022/03/08 09:43:31;;;;;;;1.37;1.37;;;8.80;96.10;;;;;;5094694;28;20652;-63
2022/03/08 09:45:58;;;;;;;1.20;1.20;;;8.90;95.90;;;;;;5092321;28;20234;-63
2022/03/08 09:48:26;;;;;;;1.27;1.23;;;9.10;96.20;;;;;;5091964;28;20198;-63
2022/03/08 09:50:53;;;;;;;2.17;2.07;;;9.20;95.90;;;;;;5092206;28;20794;-63
2022/03/08 09:53:21;;;;;;;1.90;1.80;;;8.90;97.40;;;;;;5091943;28;20290;-63
2022/03/08 09:55:48;;;;;;;2.00;1.90;;;8.60;97.90;;;;;;5092216;28;20311;-64
2022/03/08 09:58:19;;;;;;;2.08;1.98;;;8.30;97.40;;;;;;5092248;28;20226;-64
2022/03/08 10:00:46;;;;;;;2.28;1.98;;;8.00;97.70;;;;;;5091858;28;20284;-61
2022/03/08 10:03:13;;;;;;;1.98;1.88;;;7.90;98.10;;;;;;5092213;28;20261;-62
2022/03/08 10:05:43;;;;;;;1.77;1.67;;;7.90;98.30;;;;;;5092154;28;20208;-62
2022/03/08 10:08:13;;;;;;;2.05;1.95;;;8.00;98.40;;;;;;5093108;28;20625;-63
2022/03/08 10:10:58;;;;;;;1.88;1.77;;;8.10;98.20;;;;;;5093064;28;20226;-62
2022/03/08 10:13:27;;;;;;;1.92;1.83;;;8.00;98.40;;;;;;5092535;28;20190;-63
2022/03/08 10:16:09;;;;;;;1.95;1.85;;;7.90;97.90;;;;;;5091950;28;20215;-62
2022/03/08 10:18:38;;;;;;;2.80;2.00;;;8.00;98.60;;;;;;5091995;28;20333;-63
2022/03/08 10:21:26;;;;;;;2.40;2.30;;;8.40;98.70;;;;;;5091855;28;20223;-63
2022/03/08 10:23:53;;;;;;;2.25;2.15;;;8.50;97.70;;;;;;5091386;28;20186;-63
2022/03/08 10:26:21;;;;;;;1.85;1.75;;;8.20;98.10;;;;;;5091946;28;20198;-62
2022/03/08 10:28:49;;;;;;;2.05;1.95;;;8.30;98.20;;;;;;5091928;28;20209;-62
2022/03/08 10:31:17;;;;;;;1.90;1.80;;;8.60;98.50;;;;;;5091881;28;20779;-62
2022/03/08 10:33:45;;;;;;;1.90;1.80;;;8.50;98.30;;;;;;5091935;28;20695;-62
2022/03/08 10:36:16;;;;;;;1.95;1.85;;;8.70;98.60;;;;;;5094414;28;20293;-63
2022/03/08 10:39:08;;;;;;;1.93;1.83;;;9.00;98.80;;;;;;5096398;28;20233;-62
2022/03/08 10:41:41;;;;;;;2.00;1.90;;;8.90;98.00;;;;;;5095557;28;20311;-63
2022/03/08 10:44:07;;;;;;;1.90;1.80;;;8.90;97.90;;;;;;5095505;28;20293;-61
2022/03/08 10:46:34;;;;;;;2.00;1.90;;;8.80;97.50;;;;;;5095468;28;20225;-63
2022/03/08 10:49:11;;;;;;;1.90;1.80;;;8.70;97.30;;;;;;5095379;28;20680;-62
2022/03/08 10:51:40;;;;;;;1.77;1.67;;;8.70;97.10;;;;;;5094866;28;20715;-61
2022/03/08 10:54:14;;;;;;;2.40;1.90;;;8.50;97.30;;;;;;5095413;28;20656;-62
2022/03/08 10:56:46;;;;;;;1.73;1.63;;;8.70;96.70;;;;;;5096388;28;20198;-64
2022/03/08 10:59:15;;;;;;;1.60;1.60;;;9.00;96.70;;;;;;5095481;28;20270;-63
2022/03/08 11:01:43;;;;;;;1.40;1.40;;;9.20;96.60;;;;;;5094885;28;20241;-63
2022/03/08 11:04:18;;;;;;;1.85;1.70;;;9.60;97.00;;;;;;5095342;28;20206;-64
2022/03/08 11:06:50;;;;;;;1.37;1.37;;;10.10;96.40;;;;;;5095489;28;20205;-62
2022/03/08 11:09:18;;;;;;;1.43;1.40;;;10.20;95.40;;;;;;5094947;28;20260;-63
2022/03/08 11:11:45;;;;;;;1.33;1.33;;;10.40;93.70;;;;;;5094536;28;20601;-63
2022/03/08 11:14:12;;;;;;;1.20;1.20;;;10.50;93.60;;;;;;5095040;28;20297;-62
2022/03/08 11:16:40;;;;;;;1.30;1.30;;;10.90;93.40;;;;;;5095158;28;20286;-62
2022/03/08 11:19:07;;;;;;;1.67;1.60;;;11.00;94.00;;;;;;5095104;28;20229;-61
2022/03/08 11:21:36;;;;;;;1.38;1.38;;;11.00;93.80;;;;;;5094722;28;20724;-63
2022/03/08 11:24:05;;;;;;;1.52;1.52;;;10.70;94.10;;;;;;5095068;28;20213;-63
2022/03/08 11:26:32;;;;;;;1.60;1.50;;;10.20;94.00;;;;;;5095309;28;20755;-64
2022/03/08 11:29:01;;;;;;;1.52;1.52;;;10.10;94.10;;;;;;5095053;28;20199;-63
2022/03/08 11:31:33;;;;;;;1.40;1.40;;;10.10;94.50;;;;;;5094957;28;20230;-61
2022/03/08 11:34:08;;;;;;;1.85;1.70;;;10.10;94.80;;;;;;5095478;28;20187;-62
2022/03/08 11:36:38;;;;;;;1.40;1.40;;;10.20;94.70;;;;;;5095279;28;20263;-63
2022/03/08 11:39:17;;;;;;;1.50;1.50;;;10.10;94.30;;;;;;5094728;28;20268;-65
2022/03/08 11:41:47;;;;;;;1.60;1.60;;;10.10;94.30;;;;;;5094674;28;20226;-63
2022/03/08 11:44:24;;;;;;;1.80;1.70;;;10.20;94.30;;;;;;5094942;28;20207;-63
2022/03/08 11:47:10;;;;;;;1.95;1.60;;;9.90;94.20;;;;;;5095168;28;20221;-63
2022/03/08 11:49:42;;;;;;;1.70;1.60;;;9.70;94.10;;;;;;5093503;28;20199;-63
2022/03/08 11:52:20;;;;;;;1.40;1.40;;;9.70;94.70;;;;;;5094171;28;20309;-63
2022/03/08 11:54:57;;;;;;;1.52;1.50;;;9.70;94.10;;;;;;5094266;28;20688;-63
2022/03/08 11:57:57;;;;;;;1.23;1.23;;;9.70;94.50;;;;;;5094569;28;20305;-63
2022/03/08 12:00:27;;;;;;;1.60;1.50;;;9.80;94.60;;;;;;5073231;28;20235;-63
2022/03/08 12:02:56;;;;;;;1.70;1.60;;;10.00;93.80;;;;;;5095647;22;20226;-66
2022/03/08 12:05:42;;;;;;;1.42;1.42;;;9.70;94.20;;;;;;5073791;28;20257;-65
2022/03/08 12:08:39;;;;;;;1.52;1.45;;;9.90;94.50;;;;;;5065058;28;20852;-66
2022/03/08 12:11:29;;;;;;;1.50;1.50;;;10.00;93.30;;;;;;5073849;28;20206;-66
2022/03/08 12:14:01;;;;;;;1.65;1.58;;;10.00;93.80;;;;;;5074693;28;20195;-66
2022/03/08 12:16:29;;;;;;;1.50;1.40;;;10.30;93.90;;;;;;5074313;28;20619;-67
2022/03/08 12:18:57;;;;;;;1.48;1.48;;;10.40;93.80;;;;;;5074582;28;20314;-66
2022/03/08 12:21:36;;;;;;;1.70;1.60;;;10.60;94.10;;;;;;5074501;28;20306;-66
2022/03/08 12:24:06;;;;;;;1.30;1.30;;;10.70;93.60;;;;;;5074190;28;20203;-66
2022/03/08 12:26:36;;;;;;;2.25;1.40;;;10.70;93.40;;;;;;5074698;28;20231;-66
2022/03/08 12:29:09;;;;;;;2.20;1.60;;;10.80;93.60;;;;;;5073974;28;20195;-66
2022/03/08 12:32:24;;;;;;;1.55;1.48;;;10.80;93.40;;;;;;5074012;28;20276;-65
2022/03/08 12:34:53;;;;;;;1.40;1.40;;;10.60;93.80;;;;;;5031569;28;20208;-66
2022/03/08 12:37:22;;;;;;;1.48;1.40;;;10.60;93.70;;;;;;5031889;28;20428;-67
2022/03/08 12:39:53;;;;;;;1.60;1.50;;;10.80;93.90;;;;;;5031736;28;20673;-67
2022/03/08 12:42:25;;;;;;;1.40;1.40;;;10.70;93.40;;;;;;5032314;28;20224;-66
2022/03/08 12:44:54;;;;;;;1.92;1.83;;;10.80;93.60;;;;;;5031924;28;20193;-64
2022/03/08 12:47:21;;;;;;;1.70;1.60;;;10.80;93.50;;;;;;5033913;28;20267;-66
2022/03/08 12:49:50;;;;;;;1.40;1.40;;;10.90;93.50;;;;;;5032962;28;20300;-67
2022/03/08 12:52:19;;;;;;;1.90;1.80;;;10.90;93.10;;;;;;5033901;28;20312;-67
2022/03/08 12:54:47;;;;;;;1.50;1.50;;;10.70;93.10;;;;;;5031886;28;20208;-67
2022/03/08 12:57:16;;;;;;;1.70;1.60;;;10.80;93.40;;;;;;5032088;28;20201;-67
2022/03/08 12:59:50;;;;;;;1.50;1.50;;;10.80;93.20;;;;;;5030859;28;20314;-66
2022/03/08 13:02:17;;;;;;;1.38;1.38;;;10.60;93.10;;;;;;5031695;28;20746;-65